This is the latest recevied weather packets stored in our database for station/object DM8MH-13. If no packets are shown the sender has not sent any weather packets the latest 10 day(s).
| Time | Temp. | Humidity | Pressure | Rain* | Wind** | Luminosity | Snow |
|---|---|---|---|---|---|---|---|
| 1777822271 | 25.56° C | 35% | 1010.4 hPa | 0 mm | - | 346 W/m² | - |
| 1777821670 | 25.56° C | 35% | 1010.4 hPa | 0 mm | - | 379 W/m² | - |
| 1777821072 | 25.56° C | 36% | 1010.6 hPa | 0 mm | - | 348 W/m² | - |
| 1777819270 | 25.56° C | 36% | 1010.8 hPa | 0 mm | - | 207 W/m² | - |
| 1777818671 | 25.56° C | 36% | 1010.8 hPa | 0 mm | - | 217 W/m² | - |
| 1777818092 | 8.89° C | 82% | 1013.6 hPa | 0 mm | - | 30 W/m² | - |
| 1777817470 | 26.67° C | 33% | 1010.9 hPa | 0 mm | - | 272 W/m² | - |
| 1777816873 | 26.67° C | 33% | 1011 hPa | 0 mm | - | 343 W/m² | - |
| 1777816272 | 26.67° C | 34% | 1011 hPa | 0 mm | - | 403 W/m² | - |
| 1777815672 | 26.67° C | 34% | 1011.3 hPa | 0 mm | - | 460 W/m² | - |
| 1777815072 | 26.11° C | 34% | 1011.4 hPa | 0 mm | - | 650 W/m² | - |
| 1777814473 | 25.56° C | 35% | 1011.5 hPa | 0 mm | - | 458 W/m² | - |
| 1777813872 | 25.56° C | 36% | 1011.7 hPa | 0 mm | - | 447 W/m² | - |
| 1777813272 | 25.56° C | 34% | 1011.9 hPa | 0 mm | - | 413 W/m² | - |
| 1777812672 | 25.56° C | 34% | 1012 hPa | 0 mm | - | 432 W/m² | - |
| 1777812072 | 26.11° C | 33% | 1012.1 hPa | 0 mm | - | 368 W/m² | - |
| 1777811472 | 26.11° C | 31% | 1012.1 hPa | 0 mm | - | 431 W/m² | - |
| 1777810872 | 26.67° C | 31% | 1012 hPa | 0 mm | - | 633 W/m² | - |
| 1777810272 | 26.67° C | 30% | 1012 hPa | 0 mm | - | 750 W/m² | - |
| 1777809672 | 26.67° C | 29% | 1012 hPa | 0 mm | - | 624 W/m² | - |
| 1777809072 | 26.67° C | 28% | 1012.1 hPa | 0 mm | - | 792 W/m² | - |
| 1777808472 | 27.22° C | 26% | 1012.1 hPa | 0 mm | - | 798 W/m² | - |
| 1777807872 | 26.67° C | 28% | 1012.1 hPa | 0 mm | - | 759 W/m² | - |
| 1777807273 | 26.67° C | 33% | 1012.3 hPa | 0 mm | - | 691 W/m² | - |
| 1777806671 | 26.11° C | 33% | 1012.4 hPa | 0 mm | - | 669 W/m² | - |
* Rain latest hour (hover to see other rain measurements)
** Current wind speed in m/s (hover to see current wind gust speed)